sensor_id;sensor_type;location;lat;lon;timestamp;temperature;humidity
23755;DHT22;12057;52.042;6.830;2022-11-15T00:04:16;8.90;99.90
23755;DHT22;12057;52.042;6.830;2022-11-15T00:09:17;9.00;99.90
23755;DHT22;12057;52.042;6.830;2022-11-15T00:14:18;9.00;99.90
23755;DHT22;12057;52.042;6.830;2022-11-15T00:19:18;9.10;99.90
23755;DHT22;12057;52.042;6.830;2022-11-15T00:24:19;9.10;99.90
23755;DHT22;12057;52.042;6.830;2022-11-15T00:29:20;9.20;99.90
23755;DHT22;12057;52.042;6.830;2022-11-15T00:34:20;9.20;99.90
23755;DHT22;12057;52.042;6.830;2022-11-15T00:39:21;9.20;99.90
23755;DHT22;12057;52.042;6.830;2022-11-15T00:44:22;9.20;99.90
23755;DHT22;12057;52.042;6.830;2022-11-15T00:49:22;9.30;99.90
23755;DHT22;12057;52.042;6.830;2022-11-15T00:54:23;9.30;99.90
23755;DHT22;12057;52.042;6.830;2022-11-15T00:59:24;9.30;99.90
23755;DHT22;12057;52.042;6.830;2022-11-15T01:04:24;9.40;99.90
23755;DHT22;12057;52.042;6.830;2022-11-15T01:09:25;9.40;99.90
23755;DHT22;12057;52.042;6.830;2022-11-15T01:14:26;9.40;99.90
23755;DHT22;12057;52.042;6.830;2022-11-15T01:19:27;9.40;99.90
23755;DHT22;12057;52.042;6.830;2022-11-15T01:24:30;9.50;99.90
23755;DHT22;12057;52.042;6.830;2022-11-15T01:35:00;9.50;99.90
23755;DHT22;12057;52.042;6.830;2022-11-15T01:40:00;9.60;99.90
23755;DHT22;12057;52.042;6.830;2022-11-15T01:45:01;9.60;99.90
23755;DHT22;12057;52.042;6.830;2022-11-15T01:50:09;9.70;99.90
23755;DHT22;12057;52.042;6.830;2022-11-15T01:55:20;9.80;99.90
23755;DHT22;12057;52.042;6.830;2022-11-15T02:00:21;9.90;99.90
23755;DHT22;12057;52.042;6.830;2022-11-15T02:05:22;9.90;99.90
23755;DHT22;12057;52.042;6.830;2022-11-15T02:10:24;10.00;99.90
23755;DHT22;12057;52.042;6.830;2022-11-15T02:15:30;10.10;99.90
23755;DHT22;12057;52.042;6.830;2022-11-15T02:21:17;10.10;99.90
23755;DHT22;12057;52.042;6.830;2022-11-15T02:42:31;10.30;99.90
23755;DHT22;12057;52.042;6.830;2022-11-15T02:47:54;10.30;99.90
23755;DHT22;12057;52.042;6.830;2022-11-15T02:52:57;10.40;99.90
23755;DHT22;12057;52.042;6.830;2022-11-15T03:09:11;10.60;99.90
23755;DHT22;12057;52.042;6.830;2022-11-15T03:14:22;10.70;99.90
23755;DHT22;12057;52.042;6.830;2022-11-15T03:24:34;10.80;99.90
23755;DHT22;12057;52.042;6.830;2022-11-15T03:29:39;10.80;99.90
23755;DHT22;12057;52.042;6.830;2022-11-15T03:34:55;10.90;99.90
23755;DHT22;12057;52.042;6.830;2022-11-15T03:39:57;10.90;99.90
23755;DHT22;12057;52.042;6.830;2022-11-15T03:45:02;11.00;99.90
23755;DHT22;12057;52.042;6.830;2022-11-15T03:50:18;11.00;99.90
23755;DHT22;12057;52.042;6.830;2022-11-15T03:55:20;11.00;99.90
23755;DHT22;12057;52.042;6.830;2022-11-15T04:00:21;11.00;99.90
23755;DHT22;12057;52.042;6.830;2022-11-15T04:05:22;11.10;99.90
23755;DHT22;12057;52.042;6.830;2022-11-15T04:10:23;11.10;99.90
23755;DHT22;12057;52.042;6.830;2022-11-15T04:15:24;11.20;99.90
23755;DHT22;12057;52.042;6.830;2022-11-15T04:20:27;11.20;99.90
23755;DHT22;12057;52.042;6.830;2022-11-15T04:25:49;11.20;99.90
23755;DHT22;12057;52.042;6.830;2022-11-15T04:30:51;11.30;99.90
23755;DHT22;12057;52.042;6.830;2022-11-15T04:35:52;11.40;99.90
23755;DHT22;12057;52.042;6.830;2022-11-15T04:41:11;11.40;99.90
23755;DHT22;12057;52.042;6.830;2022-11-15T04:46:12;11.40;99.90
23755;DHT22;12057;52.042;6.830;2022-11-15T04:51:12;11.50;99.90
23755;DHT22;12057;52.042;6.830;2022-11-15T04:56:13;11.50;99.90
23755;DHT22;12057;52.042;6.830;2022-11-15T05:01:14;11.50;99.90
23755;DHT22;12057;52.042;6.830;2022-11-15T05:06:15;11.50;99.90
23755;DHT22;12057;52.042;6.830;2022-11-15T05:11:16;11.50;99.90
23755;DHT22;12057;52.042;6.830;2022-11-15T05:16:16;11.60;99.90
23755;DHT22;12057;52.042;6.830;2022-11-15T05:21:17;11.60;99.90
23755;DHT22;12057;52.042;6.830;2022-11-15T05:26:18;11.60;99.90
23755;DHT22;12057;52.042;6.830;2022-11-15T05:31:19;11.60;99.90
23755;DHT22;12057;52.042;6.830;2022-11-15T05:36:31;11.60;99.90
23755;DHT22;12057;52.042;6.830;2022-11-15T05:41:34;11.60;99.90
23755;DHT22;12057;52.042;6.830;2022-11-15T05:46:37;11.60;99.90
23755;DHT22;12057;52.042;6.830;2022-11-15T05:51:41;11.60;99.90
23755;DHT22;12057;52.042;6.830;2022-11-15T05:56:42;11.60;99.90
23755;DHT22;12057;52.042;6.830;2022-11-15T06:01:43;11.60;99.90
23755;DHT22;12057;52.042;6.830;2022-11-15T06:06:44;11.70;99.90
23755;DHT22;12057;52.042;6.830;2022-11-15T06:11:45;11.70;99.90
23755;DHT22;12057;52.042;6.830;2022-11-15T06:16:46;11.70;99.90
23755;DHT22;12057;52.042;6.830;2022-11-15T06:21:46;11.70;99.90
23755;DHT22;12057;52.042;6.830;2022-11-15T06:26:47;11.70;99.90
23755;DHT22;12057;52.042;6.830;2022-11-15T06:31:47;11.70;99.90
23755;DHT22;12057;52.042;6.830;2022-11-15T06:36:48;11.60;99.90
23755;DHT22;12057;52.042;6.830;2022-11-15T06:41:49;11.70;99.90
23755;DHT22;12057;52.042;6.830;2022-11-15T06:46:49;11.70;99.90
23755;DHT22;12057;52.042;6.830;2022-11-15T06:51:50;11.70;99.90
23755;DHT22;12057;52.042;6.830;2022-11-15T06:56:51;11.70;99.90
23755;DHT22;12057;52.042;6.830;2022-11-15T07:01:51;11.80;99.90
23755;DHT22;12057;52.042;6.830;2022-11-15T07:06:52;11.70;99.90
23755;DHT22;12057;52.042;6.830;2022-11-15T07:11:58;11.80;99.90
23755;DHT22;12057;52.042;6.830;2022-11-15T07:16:59;11.80;99.90
23755;DHT22;12057;52.042;6.830;2022-11-15T07:21:59;11.80;99.90
23755;DHT22;12057;52.042;6.830;2022-11-15T07:27:00;11.80;99.90
23755;DHT22;12057;52.042;6.830;2022-11-15T07:32:01;11.80;99.90
23755;DHT22;12057;52.042;6.830;2022-11-15T07:37:02;11.80;99.90
23755;DHT22;12057;52.042;6.830;2022-11-15T07:42:02;11.80;99.90
23755;DHT22;12057;52.042;6.830;2022-11-15T07:47:21;11.80;99.90
23755;DHT22;12057;52.042;6.830;2022-11-15T07:52:22;11.90;99.90
23755;DHT22;12057;52.042;6.830;2022-11-15T07:57:23;11.90;99.90
23755;DHT22;12057;52.042;6.830;2022-11-15T08:02:23;11.90;99.90
23755;DHT22;12057;52.042;6.830;2022-11-15T08:07:24;11.90;99.90
23755;DHT22;12057;52.042;6.830;2022-11-15T08:12:25;11.90;99.90
23755;DHT22;12057;52.042;6.830;2022-11-15T08:17:26;12.00;99.90
23755;DHT22;12057;52.042;6.830;2022-11-15T08:22:27;12.00;99.90
23755;DHT22;12057;52.042;6.830;2022-11-15T08:27:27;12.00;99.90
23755;DHT22;12057;52.042;6.830;2022-11-15T08:32:28;12.10;99.90
23755;DHT22;12057;52.042;6.830;2022-11-15T08:37:30;12.20;99.90
23755;DHT22;12057;52.042;6.830;2022-11-15T08:42:31;12.30;99.90
23755;DHT22;12057;52.042;6.830;2022-11-15T08:47:32;12.30;99.90
23755;DHT22;12057;52.042;6.830;2022-11-15T08:52:32;12.30;99.90
23755;DHT22;12057;52.042;6.830;2022-11-15T08:57:33;12.30;99.90
23755;DHT22;12057;52.042;6.830;2022-11-15T09:02:34;12.30;99.90
23755;DHT22;12057;52.042;6.830;2022-11-15T09:07:35;12.30;99.90
23755;DHT22;12057;52.042;6.830;2022-11-15T09:12:36;12.30;99.90
23755;DHT22;12057;52.042;6.830;2022-11-15T09:17:37;12.30;99.90
23755;DHT22;12057;52.042;6.830;2022-11-15T09:22:38;12.30;99.90
23755;DHT22;12057;52.042;6.830;2022-11-15T09:27:39;12.30;99.90
23755;DHT22;12057;52.042;6.830;2022-11-15T09:32:40;12.30;99.90
23755;DHT22;12057;52.042;6.830;2022-11-15T09:37:40;12.30;99.90
23755;DHT22;12057;52.042;6.830;2022-11-15T09:43:44;12.30;99.90
23755;DHT22;12057;52.042;6.830;2022-11-15T09:48:46;12.30;99.90
23755;DHT22;12057;52.042;6.830;2022-11-15T09:53:50;12.40;99.90
23755;DHT22;12057;52.042;6.830;2022-11-15T09:59:26;12.50;99.90
23755;DHT22;12057;52.042;6.830;2022-11-15T10:04:28;12.50;99.90
23755;DHT22;12057;52.042;6.830;2022-11-15T10:09:36;12.60;99.90
23755;DHT22;12057;52.042;6.830;2022-11-15T10:14:38;12.70;99.90
23755;DHT22;12057;52.042;6.830;2022-11-15T10:19:42;12.90;99.90
23755;DHT22;12057;52.042;6.830;2022-11-15T10:24:46;13.20;99.90
23755;DHT22;12057;52.042;6.830;2022-11-15T10:29:49;13.40;99.90
23755;DHT22;12057;52.042;6.830;2022-11-15T10:34:50;13.80;99.90
23755;DHT22;12057;52.042;6.830;2022-11-15T10:45:28;14.10;99.90
23755;DHT22;12057;52.042;6.830;2022-11-15T10:50:31;14.00;99.90
23755;DHT22;12057;52.042;6.830;2022-11-15T10:55:34;14.10;99.90
23755;DHT22;12057;52.042;6.830;2022-11-15T11:00:37;14.20;99.90
23755;DHT22;12057;52.042;6.830;2022-11-15T11:05:40;14.30;99.90
23755;DHT22;12057;52.042;6.830;2022-11-15T11:10:58;14.40;99.90
23755;DHT22;12057;52.042;6.830;2022-11-15T11:37:52;14.40;99.90
23755;DHT22;12057;52.042;6.830;2022-11-15T11:58:19;15.10;99.90
23755;DHT22;12057;52.042;6.830;2022-11-15T12:03:38;15.60;99.90
23755;DHT22;12057;52.042;6.830;2022-11-15T12:08:53;15.30;99.90
23755;DHT22;12057;52.042;6.830;2022-11-15T12:14:02;15.20;99.90
23755;DHT22;12057;52.042;6.830;2022-11-15T12:19:04;15.30;99.90
23755;DHT22;12057;52.042;6.830;2022-11-15T12:24:22;15.30;99.90
23755;DHT22;12057;52.042;6.830;2022-11-15T12:29:51;15.70;99.90
23755;DHT22;12057;52.042;6.830;2022-11-15T12:41:18;16.70;99.90
23755;DHT22;12057;52.042;6.830;2022-11-15T12:52:18;17.10;99.90
23755;DHT22;12057;52.042;6.830;2022-11-15T13:19:40;15.40;99.90
23755;DHT22;12057;52.042;6.830;2022-11-15T13:24:40;15.00;99.90
23755;DHT22;12057;52.042;6.830;2022-11-15T13:29:43;14.60;99.90
23755;DHT22;12057;52.042;6.830;2022-11-15T13:34:46;14.60;99.90
23755;DHT22;12057;52.042;6.830;2022-11-15T13:39:50;14.30;99.90
23755;DHT22;12057;52.042;6.830;2022-11-15T13:44:59;14.10;99.90
23755;DHT22;12057;52.042;6.830;2022-11-15T13:50:00;13.90;99.90
23755;DHT22;12057;52.042;6.830;2022-11-15T13:55:12;13.60;99.90
23755;DHT22;12057;52.042;6.830;2022-11-15T14:00:30;13.50;99.90
23755;DHT22;12057;52.042;6.830;2022-11-15T14:05:32;13.50;99.90
23755;DHT22;12057;52.042;6.830;2022-11-15T14:10:37;13.40;99.90
23755;DHT22;12057;52.042;6.830;2022-11-15T14:15:38;13.30;99.90
23755;DHT22;12057;52.042;6.830;2022-11-15T14:20:40;13.20;99.90
23755;DHT22;12057;52.042;6.830;2022-11-15T14:25:55;13.10;99.90
23755;DHT22;12057;52.042;6.830;2022-11-15T14:30:58;13.00;99.90
23755;DHT22;12057;52.042;6.830;2022-11-15T14:36:20;13.00;99.90
23755;DHT22;12057;52.042;6.830;2022-11-15T14:41:22;13.00;99.90
23755;DHT22;12057;52.042;6.830;2022-11-15T14:46:23;13.00;99.90
23755;DHT22;12057;52.042;6.830;2022-11-15T14:51:24;12.80;99.90
23755;DHT22;12057;52.042;6.830;2022-11-15T14:56:32;12.80;99.90
23755;DHT22;12057;52.042;6.830;2022-11-15T15:01:33;12.80;99.90
23755;DHT22;12057;52.042;6.830;2022-11-15T15:06:33;12.80;99.90
23755;DHT22;12057;52.042;6.830;2022-11-15T15:11:34;12.80;99.90
23755;DHT22;12057;52.042;6.830;2022-11-15T15:16:35;12.70;99.90
23755;DHT22;12057;52.042;6.830;2022-11-15T15:21:36;12.60;99.90
23755;DHT22;12057;52.042;6.830;2022-11-15T15:26:38;12.60;99.90
23755;DHT22;12057;52.042;6.830;2022-11-15T15:31:39;12.60;99.90
23755;DHT22;12057;52.042;6.830;2022-11-15T15:36:40;12.60;99.90
23755;DHT22;12057;52.042;6.830;2022-11-15T15:41:41;12.50;99.90
23755;DHT22;12057;52.042;6.830;2022-11-15T15:46:41;12.50;99.90
23755;DHT22;12057;52.042;6.830;2022-11-15T15:51:42;12.50;99.90
23755;DHT22;12057;52.042;6.830;2022-11-15T15:56:44;12.40;99.90
23755;DHT22;12057;52.042;6.830;2022-11-15T16:01:44;12.40;99.90
23755;DHT22;12057;52.042;6.830;2022-11-15T16:06:46;12.40;99.90
23755;DHT22;12057;52.042;6.830;2022-11-15T16:11:47;12.30;99.90
23755;DHT22;12057;52.042;6.830;2022-11-15T16:16:48;12.30;99.90
23755;DHT22;12057;52.042;6.830;2022-11-15T16:21:49;12.30;99.90
23755;DHT22;12057;52.042;6.830;2022-11-15T16:26:52;12.30;99.90
23755;DHT22;12057;52.042;6.830;2022-11-15T16:31:53;12.30;99.90
23755;DHT22;12057;52.042;6.830;2022-11-15T16:36:54;12.30;99.90
23755;DHT22;12057;52.042;6.830;2022-11-15T16:41:56;12.30;99.90
23755;DHT22;12057;52.042;6.830;2022-11-15T16:46:56;12.50;99.90
23755;DHT22;12057;52.042;6.830;2022-11-15T16:51:57;12.30;99.90
23755;DHT22;12057;52.042;6.830;2022-11-15T16:56:58;12.30;99.90
23755;DHT22;12057;52.042;6.830;2022-11-15T17:01:59;12.30;99.90
23755;DHT22;12057;52.042;6.830;2022-11-15T17:06:59;12.30;99.90
23755;DHT22;12057;52.042;6.830;2022-11-15T17:12:00;12.40;99.90
23755;DHT22;12057;52.042;6.830;2022-11-15T17:17:01;12.40;99.90
23755;DHT22;12057;52.042;6.830;2022-11-15T17:28:00;12.40;99.90
23755;DHT22;12057;52.042;6.830;2022-11-15T17:33:01;12.40;99.90
23755;DHT22;12057;52.042;6.830;2022-11-15T17:38:01;12.40;99.90
23755;DHT22;12057;52.042;6.830;2022-11-15T17:43:05;12.50;99.90
23755;DHT22;12057;52.042;6.830;2022-11-15T17:48:05;12.50;99.90
23755;DHT22;12057;52.042;6.830;2022-11-15T17:53:06;12.50;99.90
23755;DHT22;12057;52.042;6.830;2022-11-15T17:58:09;12.50;99.90
23755;DHT22;12057;52.042;6.830;2022-11-15T18:03:09;12.50;99.90
23755;DHT22;12057;52.042;6.830;2022-11-15T18:08:11;12.50;99.90
23755;DHT22;12057;52.042;6.830;2022-11-15T18:13:12;12.60;99.90
23755;DHT22;12057;52.042;6.830;2022-11-15T18:18:13;12.60;99.90
23755;DHT22;12057;52.042;6.830;2022-11-15T18:23:15;12.60;99.90
23755;DHT22;12057;52.042;6.830;2022-11-15T18:28:16;12.60;99.90
23755;DHT22;12057;52.042;6.830;2022-11-15T18:33:16;12.60;99.90
23755;DHT22;12057;52.042;6.830;2022-11-15T18:38:18;12.60;99.90
23755;DHT22;12057;52.042;6.830;2022-11-15T18:43:19;12.60;99.90
23755;DHT22;12057;52.042;6.830;2022-11-15T18:48:19;12.60;99.90
23755;DHT22;12057;52.042;6.830;2022-11-15T18:53:20;12.60;99.90
23755;DHT22;12057;52.042;6.830;2022-11-15T18:58:21;12.70;99.90
23755;DHT22;12057;52.042;6.830;2022-11-15T19:03:22;12.60;99.90
23755;DHT22;12057;52.042;6.830;2022-11-15T19:08:25;12.70;99.90
23755;DHT22;12057;52.042;6.830;2022-11-15T19:13:26;12.60;99.90
23755;DHT22;12057;52.042;6.830;2022-11-15T19:18:27;12.70;99.90
23755;DHT22;12057;52.042;6.830;2022-11-15T19:23:28;12.60;99.90
23755;DHT22;12057;52.042;6.830;2022-11-15T19:28:32;12.60;99.90
23755;DHT22;12057;52.042;6.830;2022-11-15T19:33:33;12.70;99.90
23755;DHT22;12057;52.042;6.830;2022-11-15T19:38:34;12.60;99.90
23755;DHT22;12057;52.042;6.830;2022-11-15T19:43:36;12.70;99.90
23755;DHT22;12057;52.042;6.830;2022-11-15T19:48:37;12.70;99.90
23755;DHT22;12057;52.042;6.830;2022-11-15T19:53:38;12.60;99.90
23755;DHT22;12057;52.042;6.830;2022-11-15T19:58:39;12.70;99.90
23755;DHT22;12057;52.042;6.830;2022-11-15T20:03:40;12.60;99.90
23755;DHT22;12057;52.042;6.830;2022-11-15T20:08:42;12.70;99.90
23755;DHT22;12057;52.042;6.830;2022-11-15T20:13:43;12.70;99.90
23755;DHT22;12057;52.042;6.830;2022-11-15T20:18:45;12.70;99.90
23755;DHT22;12057;52.042;6.830;2022-11-15T20:23:46;12.70;99.90
23755;DHT22;12057;52.042;6.830;2022-11-15T20:28:47;12.60;99.90
23755;DHT22;12057;52.042;6.830;2022-11-15T20:33:48;12.50;99.90
23755;DHT22;12057;52.042;6.830;2022-11-15T20:38:49;12.60;99.90
23755;DHT22;12057;52.042;6.830;2022-11-15T20:43:52;12.60;99.90
23755;DHT22;12057;52.042;6.830;2022-11-15T20:48:53;12.60;99.90
23755;DHT22;12057;52.042;6.830;2022-11-15T20:53:54;12.60;99.90
23755;DHT22;12057;52.042;6.830;2022-11-15T20:58:55;12.50;99.90
23755;DHT22;12057;52.042;6.830;2022-11-15T21:03:56;12.50;99.90
23755;DHT22;12057;52.042;6.830;2022-11-15T21:09:00;12.40;99.90
23755;DHT22;12057;52.042;6.830;2022-11-15T21:14:19;12.40;99.90
23755;DHT22;12057;52.042;6.830;2022-11-15T21:19:20;12.40;99.90
23755;DHT22;12057;52.042;6.830;2022-11-15T21:24:21;12.30;99.90
23755;DHT22;12057;52.042;6.830;2022-11-15T21:29:24;12.40;99.90
23755;DHT22;12057;52.042;6.830;2022-11-15T21:34:24;12.30;99.90
23755;DHT22;12057;52.042;6.830;2022-11-15T21:39:25;12.20;99.90
23755;DHT22;12057;52.042;6.830;2022-11-15T21:44:27;12.20;99.90
23755;DHT22;12057;52.042;6.830;2022-11-15T21:49:27;12.10;99.90
23755;DHT22;12057;52.042;6.830;2022-11-15T21:54:28;12.10;99.90
23755;DHT22;12057;52.042;6.830;2022-11-15T21:59:29;12.10;99.90
23755;DHT22;12057;52.042;6.830;2022-11-15T22:04:29;12.10;99.90
23755;DHT22;12057;52.042;6.830;2022-11-15T22:09:30;12.00;99.90
23755;DHT22;12057;52.042;6.830;2022-11-15T22:14:30;12.00;99.90
23755;DHT22;12057;52.042;6.830;2022-11-15T22:19:31;12.00;99.90
23755;DHT22;12057;52.042;6.830;2022-11-15T22:24:32;12.00;99.90
23755;DHT22;12057;52.042;6.830;2022-11-15T22:29:33;12.00;99.90
23755;DHT22;12057;52.042;6.830;2022-11-15T22:34:33;12.00;99.90
23755;DHT22;12057;52.042;6.830;2022-11-15T22:39:34;12.00;99.90
23755;DHT22;12057;52.042;6.830;2022-11-15T22:44:35;12.00;99.90
23755;DHT22;12057;52.042;6.830;2022-11-15T22:49:36;12.00;99.90
23755;DHT22;12057;52.042;6.830;2022-11-15T22:54:36;12.00;99.90
23755;DHT22;12057;52.042;6.830;2022-11-15T22:59:37;12.00;99.90
23755;DHT22;12057;52.042;6.830;2022-11-15T23:04:38;12.00;99.90
23755;DHT22;12057;52.042;6.830;2022-11-15T23:09:39;12.00;99.90
23755;DHT22;12057;52.042;6.830;2022-11-15T23:14:40;12.00;99.90
23755;DHT22;12057;52.042;6.830;2022-11-15T23:19:40;12.00;99.90
23755;DHT22;12057;52.042;6.830;2022-11-15T23:24:41;12.00;99.90
23755;DHT22;12057;52.042;6.830;2022-11-15T23:29:42;11.90;99.90
23755;DHT22;12057;52.042;6.830;2022-11-15T23:35:07;11.90;99.90
23755;DHT22;12057;52.042;6.830;2022-11-15T23:40:08;11.90;99.90
23755;DHT22;12057;52.042;6.830;2022-11-15T23:45:10;11.90;99.90
23755;DHT22;12057;52.042;6.830;2022-11-15T23:50:11;11.90;99.90
23755;DHT22;12057;52.042;6.830;2022-11-15T23:55:11;11.90;99.90
